Salacia — WDF4062 — position and weather

sailwx.info

Track history (hours):
 
Tides and Currents Weather Stations Pressure Air Temp Water Temp Dewpoint Dewpoint Depression Visibility Wind Speed Wind Dir Waves Ship Positions

Salacia

Owner: Boston Harbor Cruises, Boston, MA. More information available from US FCC via Universal Licensing System and Coast Guard Vessel Documentation Center.

Last reported at 2018-Jun-21 16:00 UTC. Time now 2018-Jun-21 16:25 UTC.
Position N 42°15' W 070°42'.

Length 44 m.

Type: High speed craft. MMSI: 367447520.

Date/timePositionNaut miles runAvg speedWind from/ knotsBaromVisibWave heightAir tempDewpointWater temp
2018-Jun-21 16:00N 42°15' W 070°42'8 4.1
2018-Jun-21 13:56N 42°10' W 070°32'1431.4
2018-Jun-21 13:30N 42°17' W 070°47'1224.2
2018-Jun-21 13:00N 42°22' W 071°03'0 0.0
2018-Jun-21 12:30N 42°22' W 071°03'0 0.0
2018-Jun-21 12:00N 42°22' W 071°03'0 0.0
2018-Jun-21 11:30N 42°22' W 071°03'0 0.0
2018-Jun-21 11:00N 42°22' W 071°03'0 0.0
2018-Jun-21 10:31N 42°22' W 071°03'0 0.0
2018-Jun-20 22:29N 42°22' W 071°03'0 0.3
2018-Jun-20 22:00N 42°22' W 071°03'1 1.6
2018-Jun-20 21:30N 42°21' W 071°02'1631.8
2018-Jun-20 21:01N 42°15' W 070°42'17 9.0
2018-Jun-20 19:10N 42°06' W 070°23'531.3
2018-Jun-20 19:00N 42°09' W 070°29'1631.6
2018-Jun-20 18:30N 42°17' W 070°47'1224.8
2018-Jun-20 18:00N 42°22' W 071°03'0 0.0
2018-Jun-20 17:30N 42°22' W 071°03'0 0.0
2018-Jun-20 17:00N 42°22' W 071°03'0 0.0
2018-Jun-20 16:30N 42°22' W 071°03'0 0.0
2018-Jun-20 16:00N 42°22' W 071°03'4 7.3
2018-Jun-20 15:30N 42°20' W 070°58'4 7.4
2018-Jun-20 15:00N 42°22' W 071°03'0 0.0
2018-Jun-20 14:30N 42°22' W 071°03'0 0.0
2018-Jun-20 14:00N 42°22' W 071°03'1 0.5
2018-Jun-20 11:15N 42°23' W 071°03'0 0.0
2018-Jun-20 01:00N 42°23' W 071°03'1 2.6
2018-Jun-20 00:30N 42°22' W 071°03'0 0.0
2018-Jun-20 00:00N 42°22' W 071°03'0 0.0
2018-Jun-19 23:30N 42°22' W 071°03'0 0.0
2018-Jun-19 23:00N 42°22' W 071°03'0 0.0
2018-Jun-19 22:30N 42°22' W 071°03'0 0.0
2018-Jun-19 22:01N 42°22' W 071°03'2 3.7
2018-Jun-19 21:30N 42°21' W 071°01'1531.0
2018-Jun-19 21:00N 42°15' W 070°41'4 2.1
2018-Jun-19 18:50N 42°12' W 070°36'1032.2
2018-Jun-19 18:31N 42°18' W 070°49'1122.6
2018-Jun-19 18:00N 42°22' W 071°03'0 0.0
2018-Jun-19 17:30N 42°22' W 071°03'0 0.0
2018-Jun-19 17:00N 42°22' W 071°03'2 3.9
2018-Jun-19 16:30N 42°21' W 071°01'1530.8
2018-Jun-19 16:00N 42°15' W 070°41'7 3.4
2018-Jun-19 13:55N 42°11' W 070°33'1332.1
2018-Jun-19 13:30N 42°18' W 070°49'1122.3
2018-Jun-19 13:00N 42°22' W 071°03'0 0.0
2018-Jun-19 12:30N 42°22' W 071°03'1 1.1
2018-Jun-19 12:00N 42°22' W 071°02'1 0.1
2018-Jun-18 22:54N 42°23' W 071°03'1 3.3
2018-Jun-18 22:30N 42°22' W 071°03'0 0.0
2018-Jun-18 22:00N 42°22' W 071°03'3 6.1
2018-Jun-18 21:31N 42°20' W 070°59'21 7.9
2018-Jun-18 18:52N 42°11' W 070°34'1231.7
2018-Jun-18 18:30N 42°17' W 070°47'1325.5
2018-Jun-18 18:00N 42°22' W 071°03'0 0.0
2018-Jun-18 17:31N 42°22' W 071°03'0 0.0
2018-Jun-18 17:01N 42°22' W 071°03'1 1.6
2018-Jun-18 16:31N 42°21' W 071°02'1530.7
2018-Jun-18 16:00N 42°15' W 070°43'14 7.1
2018-Jun-18 14:06N 42°07' W 070°28'730.0
2018-Jun-18 13:51N 42°12' W 070°36'1130.9
2018-Jun-18 13:31N 42°18' W 070°48'1223.6
2018-Jun-18 13:00N 42°22' W 071°03'0 0.0
2018-Jun-18 12:30N 42°22' W 071°03'0 0.0
2018-Jun-18 12:00N 42°22' W 071°03'1 1.1
2018-Jun-18 11:30N 42°22' W 071°02'1 1.1
2018-Jun-18 11:01N 42°22' W 071°03'1 0.1
2018-Jun-18 02:00N 42°21' W 071°02'1931.2
2018-Jun-18 01:25N 42°14' W 070°39'1431.9
2018-Jun-18 00:59N 42°06' W 070°24'1111.8
2018-Jun-18 00:01N 42°02' W 070°10'134.2
2018-Jun-18 00:00N 42°01' W 070°11'1731.8
2018-Jun-17 23:29N 42°10' W 070°30'1531.8
2018-Jun-17 23:01N 42°18' W 070°47'1224.8
2018-Jun-17 22:30N 42°22' W 071°03'0 0.0
2018-Jun-17 22:00N 42°22' W 071°03'0 0.8
2018-Jun-17 21:31N 42°21' W 071°02'1529.8
2018-Jun-17 21:00N 42°16' W 070°44'1632.3
2018-Jun-17 20:30N 42°07' W 070°25'3 2.6
2018-Jun-17 19:10N 42°05' W 070°22'633.5
2018-Jun-17 19:00N 42°08' W 070°28'1733.2
2018-Jun-17 18:30N 42°17' W 070°47'1325.6
2018-Jun-17 18:00N 42°22' W 071°03'0 0.0
2018-Jun-17 17:30N 42°22' W 071°03'0 0.0
2018-Jun-17 17:00N 42°22' W 071°03'5 9.2
2018-Jun-17 16:31N 42°20' W 070°57'1733.1
2018-Jun-17 16:00N 42°12' W 070°37'2214.3
2018-Jun-17 14:30N 42°01' W 070°12'1631.7
2018-Jun-17 14:00N 42°09' W 070°30'1631.6
2018-Jun-17 13:30N 42°18' W 070°48'1123.0
2018-Jun-17 13:01N 42°22' W 071°03'0 0.0
2018-Jun-17 12:30N 42°22' W 071°03'0 0.8
2018-Jun-17 12:01N 42°22' W 071°02'0 0.3
2018-Jun-17 11:30N 42°22' W 071°02'1 1.1
2018-Jun-17 11:01N 42°22' W 071°03'0 0.0
2018-Jun-17 02:16N 42°22' W 071°03'1 3.6
2018-Jun-17 02:01N 42°21' W 071°02'1632.6
2018-Jun-17 01:30N 42°15' W 070°41'10 5.0
2018-Jun-16 23:30N 42°09' W 070°30'1632.1
2018-Jun-16 23:01N 42°18' W 070°48'1223.3
2018-Jun-16 22:30N 42°22' W 071°03'0 0.0
2018-Jun-16 22:00N 42°22' W 071°03'4 7.3
2018-Jun-16 21:30N 42°20' W 070°58'22 8.8
2018-Jun-16 19:00N 42°10' W 070°32'1530.6
2018-Jun-16 18:30N 42°18' W 070°49'1121.4
2018-Jun-16 18:01N 42°22' W 071°03'0 0.0
2018-Jun-16 17:30N 42°22' W 071°03'0 0.0
2018-Jun-16 17:00N 42°22' W 071°03'1 1.2
2018-Jun-16 16:31N 42°21' W 071°02'1732.0
2018-Jun-16 15:59N 42°15' W 070°42'6 2.9
2018-Jun-16 13:51N 42°11' W 070°35'1131.7
2018-Jun-16 13:31N 42°17' W 070°47'1325.3
2018-Jun-16 13:00N 42°22' W 071°03'0 0.0
2018-Jun-16 12:30N 42°22' W 071°03'1 1.1
2018-Jun-16 12:00N 42°22' W 071°02'0 0.7
2018-Jun-16 11:30N 42°22' W 071°03'0 0.0
2018-Jun-16 02:03N 42°22' W 071°03'0 0.0
2018-Jun-16 02:00N 42°22' W 071°03'1428.4
2018-Jun-16 01:31N 42°16' W 070°45'2918.9
2018-Jun-15 23:58N 42°01' W 070°12'1532.2
2018-Jun-15 23:30N 42°09' W 070°29'1632.0
2018-Jun-15 23:01N 42°17' W 070°47'1224.7
2018-Jun-15 22:30N 42°22' W 071°03'0 0.0
2018-Jun-15 22:00N 42°22' W 071°03'1 1.7
2018-Jun-15 21:30N 42°21' W 071°02'1631.3
2018-Jun-15 21:00N 42°15' W 070°42'7 3.2
2018-Jun-15 18:54N 42°12' W 070°35'1230.7
2018-Jun-15 18:30N 42°18' W 070°49'1122.3
2018-Jun-15 18:01N 42°22' W 071°03'0 0.0
2018-Jun-15 17:31N 42°22' W 071°03'0 0.0
2018-Jun-15 17:00N 42°22' W 071°03'3 5.6
2018-Jun-15 16:31N 42°20' W 070°59'21 8.3
2018-Jun-15 13:56N 42°11' W 070°34'1330.6
2018-Jun-15 13:30N 42°18' W 070°49'1122.0
2018-Jun-15 13:00N 42°22' W 071°03'0 0.0
2018-Jun-15 12:30N 42°22' W 071°03'1 1.1
2018-Jun-15 12:00N 42°22' W 071°02'0 0.0
2018-Jun-15 11:30N 42°22' W 071°02'1 0.1
2018-Jun-15 02:17N 42°22' W 071°03'1 3.3
2018-Jun-15 02:00N 42°21' W 071°02'1632.9
2018-Jun-15 01:30N 42°15' W 070°41'11 5.6
2018-Jun-14 23:31N 42°09' W 070°29'332.0
2018-Jun-14 23:25N 42°10' W 070°32'1331.9
2018-Jun-14 23:01N 42°17' W 070°47'1225.0
2018-Jun-14 22:31N 42°22' W 071°03'0 0.0
2018-Jun-14 22:00N 42°22' W 071°03'1 1.4
2018-Jun-14 21:30N 42°21' W 071°02'1530.7
2018-Jun-14 21:00N 42°15' W 070°43'9 4.5
2018-Jun-14 18:56N 42°10' W 070°32'1431.7
2018-Jun-14 18:30N 42°17' W 070°48'1223.5
2018-Jun-14 18:00N 42°22' W 071°03'0 0.0
2018-Jun-14 17:30N 42°22' W 071°03'0 0.0
2018-Jun-14 17:00N 42°22' W 071°03'2 5.0
2018-Jun-14 16:31N 42°20' W 071°00'1530.7
2018-Jun-14 16:00N 42°15' W 070°41'4 1.9
2018-Jun-14 13:48N 42°12' W 070°36'931.3
2018-Jun-14 13:31N 42°17' W 070°47'1325.5
2018-Jun-14 13:00N 42°22' W 071°03'0 0.0
2018-Jun-14 12:31N 42°22' W 071°03'0 0.0
2018-Jun-14 12:00N 42°22' W 071°03'1 1.1
2018-Jun-14 11:30N 42°22' W 071°02'1 0.0
2018-Jun-13 21:44N 42°22' W 071°03'1 3.7
2018-Jun-13 21:30N 42°21' W 071°02'1631.5
2018-Jun-13 21:01N 42°15' W 070°42'8 3.8
2018-Jun-13 18:55N 42°11' W 070°34'1331.7
2018-Jun-13 18:30N 42°18' W 070°49'1122.5
2018-Jun-13 18:00N 42°22' W 071°03'0 0.0
2018-Jun-13 17:30N 42°22' W 071°03'0 0.0
2018-Jun-13 17:00N 42°22' W 071°03'2 4.6
2018-Jun-13 16:30N 42°21' W 071°00'22 8.6
2018-Jun-13 13:57N 42°11' W 070°34'1431.7
2018-Jun-13 13:30N 42°18' W 070°50'1020.5
2018-Jun-13 13:00N 42°22' W 071°03'0 0.0
2018-Jun-13 12:30N 42°22' W 071°03'0 0.4
2018-Jun-13 12:01N 42°22' W 071°03'0 0.7
2018-Jun-13 11:31N 42°22' W 071°02'1 1.1
2018-Jun-13 11:01N 42°22' W 071°03'0 0.0
2018-Jun-12 21:44N 42°22' W 071°03'1 5.3
2018-Jun-12 21:30N 42°21' W 071°01'1632.4
2018-Jun-12 21:00N 42°14' W 070°42'6 3.0
2018-Jun-12 18:55N 42°11' W 070°34'1331.6
2018-Jun-12 18:30N 42°18' W 070°49'1121.6
2018-Jun-12 18:00N 42°22' W 071°03'0 0.0
2018-Jun-12 17:30N 42°22' W 071°03'0 0.0
2018-Jun-12 17:00N 42°22' W 071°03'3 5.8
2018-Jun-12 16:30N 42°20' W 070°59'2912.6
2018-Jun-12 14:12N 42°07' W 070°25'630.8
2018-Jun-12 14:00N 42°10' W 070°32'1530.8
2018-Jun-12 13:31N 42°18' W 070°49'1121.2
2018-Jun-12 13:00N 42°22' W 071°03'0 0.0
2018-Jun-12 12:30N 42°22' W 071°03'1 1.1
2018-Jun-12 12:00N 42°22' W 071°02'0 0.0
2018-Jun-12 11:30N 42°22' W 071°02'1 1.1
2018-Jun-12 11:00N 42°22' W 071°03'0 0.0
2018-Jun-11 21:42N 42°22' W 071°03'211.7
2018-Jun-11 21:30N 42°21' W 071°00'1631.8
2018-Jun-11 21:00N 42°14' W 070°40'1631.5
2018-Jun-11 20:30N 42°06' W 070°23'911.3
2018-Jun-11 19:42N 42°03' W 070°11'211.7
2018-Jun-11 19:30N 42°01' W 070°13'1530.7
2018-Jun-11 19:00N 42°10' W 070°31'1530.9
2018-Jun-11 18:31N 42°18' W 070°48'1122.6
2018-Jun-11 18:00N 42°22' W 071°03'0 0.0
2018-Jun-11 17:30N 42°22' W 071°03'0 0.0
2018-Jun-11 17:01N 42°22' W 071°03'1 2.9
2018-Jun-11 16:30N 42°21' W 071°01'1631.0
2018-Jun-11 16:00N 42°15' W 070°42'  
Track history (hours):
 
Tides and Currents Weather Stations Pressure Air Temp Water Temp Dewpoint Dewpoint Depression Visibility Wind Speed Wind Dir Waves Ship Positions

Salacia

Owner: Boston Harbor Cruises, Boston, MA. More information available from US FCC via Universal Licensing System and Coast Guard Vessel Documentation Center.

Last reported at 2018-Jun-21 16:00 UTC. Time now 2018-Jun-21 16:25 UTC.
Position N 42°15' W 070°42'.

Length 44 m.

Type: High speed craft. MMSI: 367447520.

Date/timePositionNaut miles runAvg speedWind from/ knotsBaromVisibWave heightAir tempDewpointWater temp
2018-Jun-21 16:00N 42°15' W 070°42'8 4.1
2018-Jun-21 13:56N 42°10' W 070°32'1431.4
2018-Jun-21 13:30N 42°17' W 070°47'1224.2
2018-Jun-21 13:00N 42°22' W 071°03'0 0.0
2018-Jun-21 12:30N 42°22' W 071°03'0 0.0
2018-Jun-21 12:00N 42°22' W 071°03'0 0.0
2018-Jun-21 11:30N 42°22' W 071°03'0 0.0
2018-Jun-21 11:00N 42°22' W 071°03'0 0.0
2018-Jun-21 10:31N 42°22' W 071°03'0 0.0
2018-Jun-20 22:29N 42°22' W 071°03'0 0.3
2018-Jun-20 22:00N 42°22' W 071°03'1 1.6
2018-Jun-20 21:30N 42°21' W 071°02'1631.8
2018-Jun-20 21:01N 42°15' W 070°42'17 9.0
2018-Jun-20 19:10N 42°06' W 070°23'531.3
2018-Jun-20 19:00N 42°09' W 070°29'1631.6
2018-Jun-20 18:30N 42°17' W 070°47'1224.8
2018-Jun-20 18:00N 42°22' W 071°03'0 0.0
2018-Jun-20 17:30N 42°22' W 071°03'0 0.0
2018-Jun-20 17:00N 42°22' W 071°03'0 0.0
2018-Jun-20 16:30N 42°22' W 071°03'0 0.0
2018-Jun-20 16:00N 42°22' W 071°03'4 7.3
2018-Jun-20 15:30N 42°20' W 070°58'4 7.4
2018-Jun-20 15:00N 42°22' W 071°03'0 0.0
2018-Jun-20 14:30N 42°22' W 071°03'0 0.0
2018-Jun-20 14:00N 42°22' W 071°03'1 0.5
2018-Jun-20 11:15N 42°23' W 071°03'0 0.0
2018-Jun-20 01:00N 42°23' W 071°03'1 2.6
2018-Jun-20 00:30N 42°22' W 071°03'0 0.0
2018-Jun-20 00:00N 42°22' W 071°03'0 0.0
2018-Jun-19 23:30N 42°22' W 071°03'0 0.0
2018-Jun-19 23:00N 42°22' W 071°03'0 0.0
2018-Jun-19 22:30N 42°22' W 071°03'0 0.0
2018-Jun-19 22:01N 42°22' W 071°03'2 3.7
2018-Jun-19 21:30N 42°21' W 071°01'1531.0
2018-Jun-19 21:00N 42°15' W 070°41'4 2.1
2018-Jun-19 18:50N 42°12' W 070°36'1032.2
2018-Jun-19 18:31N 42°18' W 070°49'1122.6
2018-Jun-19 18:00N 42°22' W 071°03'0 0.0
2018-Jun-19 17:30N 42°22' W 071°03'0 0.0
2018-Jun-19 17:00N 42°22' W 071°03'2 3.9
2018-Jun-19 16:30N 42°21' W 071°01'1530.8
2018-Jun-19 16:00N 42°15' W 070°41'7 3.4
2018-Jun-19 13:55N 42°11' W 070°33'1332.1
2018-Jun-19 13:30N 42°18' W 070°49'1122.3
2018-Jun-19 13:00N 42°22' W 071°03'0 0.0
2018-Jun-19 12:30N 42°22' W 071°03'1 1.1
2018-Jun-19 12:00N 42°22' W 071°02'1 0.1
2018-Jun-18 22:54N 42°23' W 071°03'1 3.3
2018-Jun-18 22:30N 42°22' W 071°03'0 0.0
2018-Jun-18 22:00N 42°22' W 071°03'3 6.1
2018-Jun-18 21:31N 42°20' W 070°59'21 7.9
2018-Jun-18 18:52N 42°11' W 070°34'1231.7
2018-Jun-18 18:30N 42°17' W 070°47'1325.5
2018-Jun-18 18:00N 42°22' W 071°03'0 0.0
2018-Jun-18 17:31N 42°22' W 071°03'0 0.0
2018-Jun-18 17:01N 42°22' W 071°03'1 1.6
2018-Jun-18 16:31N 42°21' W 071°02'1530.7
2018-Jun-18 16:00N 42°15' W 070°43'14 7.1
2018-Jun-18 14:06N 42°07' W 070°28'730.0
2018-Jun-18 13:51N 42°12' W 070°36'1130.9
2018-Jun-18 13:31N 42°18' W 070°48'1223.6
2018-Jun-18 13:00N 42°22' W 071°03'0 0.0
2018-Jun-18 12:30N 42°22' W 071°03'0 0.0
2018-Jun-18 12:00N 42°22' W 071°03'1 1.1
2018-Jun-18 11:30N 42°22' W 071°02'1 1.1
2018-Jun-18 11:01N 42°22' W 071°03'1 0.1
2018-Jun-18 02:00N 42°21' W 071°02'1931.2
2018-Jun-18 01:25N 42°14' W 070°39'1431.9
2018-Jun-18 00:59N 42°06' W 070°24'1111.8
2018-Jun-18 00:01N 42°02' W 070°10'134.2
2018-Jun-18 00:00N 42°01' W 070°11'1731.8
2018-Jun-17 23:29N 42°10' W 070°30'1531.8
2018-Jun-17 23:01N 42°18' W 070°47'1224.8
2018-Jun-17 22:30N 42°22' W 071°03'0 0.0
2018-Jun-17 22:00N 42°22' W 071°03'0 0.8
2018-Jun-17 21:31N 42°21' W 071°02'1529.8
2018-Jun-17 21:00N 42°16' W 070°44'1632.3
2018-Jun-17 20:30N 42°07' W 070°25'3 2.6
2018-Jun-17 19:10N 42°05' W 070°22'633.5
2018-Jun-17 19:00N 42°08' W 070°28'1733.2
2018-Jun-17 18:30N 42°17' W 070°47'1325.6
2018-Jun-17 18:00N 42°22' W 071°03'0 0.0
2018-Jun-17 17:30N 42°22' W 071°03'0 0.0
2018-Jun-17 17:00N 42°22' W 071°03'5 9.2
2018-Jun-17 16:31N 42°20' W 070°57'1733.1
2018-Jun-17 16:00N 42°12' W 070°37'2214.3
2018-Jun-17 14:30N 42°01' W 070°12'1631.7
2018-Jun-17 14:00N 42°09' W 070°30'1631.6
2018-Jun-17 13:30N 42°18' W 070°48'1123.0
2018-Jun-17 13:01N 42°22' W 071°03'0 0.0
2018-Jun-17 12:30N 42°22' W 071°03'0 0.8
2018-Jun-17 12:01N 42°22' W 071°02'0 0.3
2018-Jun-17 11:30N 42°22' W 071°02'1 1.1
2018-Jun-17 11:01N 42°22' W 071°03'0 0.0
2018-Jun-17 02:16N 42°22' W 071°03'1 3.6
2018-Jun-17 02:01N 42°21' W 071°02'1632.6
2018-Jun-17 01:30N 42°15' W 070°41'10 5.0
2018-Jun-16 23:30N 42°09' W 070°30'1632.1
2018-Jun-16 23:01N 42°18' W 070°48'1223.3
2018-Jun-16 22:30N 42°22' W 071°03'0 0.0
2018-Jun-16 22:00N 42°22' W 071°03'4 7.3
2018-Jun-16 21:30N 42°20' W 070°58'22 8.8
2018-Jun-16 19:00N 42°10' W 070°32'1530.6
2018-Jun-16 18:30N 42°18' W 070°49'1121.4
2018-Jun-16 18:01N 42°22' W 071°03'0 0.0
2018-Jun-16 17:30N 42°22' W 071°03'0 0.0
2018-Jun-16 17:00N 42°22' W 071°03'1 1.2
2018-Jun-16 16:31N 42°21' W 071°02'1732.0
2018-Jun-16 15:59N 42°15' W 070°42'6 2.9
2018-Jun-16 13:51N 42°11' W 070°35'1131.7
2018-Jun-16 13:31N 42°17' W 070°47'1325.3
2018-Jun-16 13:00N 42°22' W 071°03'0 0.0
2018-Jun-16 12:30N 42°22' W 071°03'1 1.1
2018-Jun-16 12:00N 42°22' W 071°02'0 0.7
2018-Jun-16 11:30N 42°22' W 071°03'0 0.0
2018-Jun-16 02:03N 42°22' W 071°03'0 0.0
2018-Jun-16 02:00N 42°22' W 071°03'1428.4
2018-Jun-16 01:31N 42°16' W 070°45'2918.9
2018-Jun-15 23:58N 42°01' W 070°12'1532.2
2018-Jun-15 23:30N 42°09' W 070°29'1632.0
2018-Jun-15 23:01N 42°17' W 070°47'1224.7
2018-Jun-15 22:30N 42°22' W 071°03'0 0.0
2018-Jun-15 22:00N 42°22' W 071°03'1 1.7
2018-Jun-15 21:30N 42°21' W 071°02'1631.3
2018-Jun-15 21:00N 42°15' W 070°42'7 3.2
2018-Jun-15 18:54N 42°12' W 070°35'1230.7
2018-Jun-15 18:30N 42°18' W 070°49'1122.3
2018-Jun-15 18:01N 42°22' W 071°03'0 0.0
2018-Jun-15 17:31N 42°22' W 071°03'0 0.0
2018-Jun-15 17:00N 42°22' W 071°03'3 5.6
2018-Jun-15 16:31N 42°20' W 070°59'21 8.3
2018-Jun-15 13:56N 42°11' W 070°34'1330.6
2018-Jun-15 13:30N 42°18' W 070°49'1122.0
2018-Jun-15 13:00N 42°22' W 071°03'0 0.0
2018-Jun-15 12:30N 42°22' W 071°03'1 1.1
2018-Jun-15 12:00N 42°22' W 071°02'0 0.0
2018-Jun-15 11:30N 42°22' W 071°02'1 0.1
2018-Jun-15 02:17N 42°22' W 071°03'1 3.3
2018-Jun-15 02:00N 42°21' W 071°02'1632.9
2018-Jun-15 01:30N 42°15' W 070°41'11 5.6
2018-Jun-14 23:31N 42°09' W 070°29'332.0
2018-Jun-14 23:25N 42°10' W 070°32'1331.9
2018-Jun-14 23:01N 42°17' W 070°47'1225.0
2018-Jun-14 22:31N 42°22' W 071°03'0 0.0
2018-Jun-14 22:00N 42°22' W 071°03'1 1.4
2018-Jun-14 21:30N 42°21' W 071°02'1530.7
2018-Jun-14 21:00N 42°15' W 070°43'9 4.5
2018-Jun-14 18:56N 42°10' W 070°32'1431.7
2018-Jun-14 18:30N 42°17' W 070°48'1223.5
2018-Jun-14 18:00N 42°22' W 071°03'0 0.0
2018-Jun-14 17:30N 42°22' W 071°03'0 0.0
2018-Jun-14 17:00N 42°22' W 071°03'2 5.0
2018-Jun-14 16:31N 42°20' W 071°00'1530.7
2018-Jun-14 16:00N 42°15' W 070°41'4 1.9
2018-Jun-14 13:48N 42°12' W 070°36'931.3
2018-Jun-14 13:31N 42°17' W 070°47'1325.5
2018-Jun-14 13:00N 42°22' W 071°03'0 0.0
2018-Jun-14 12:31N 42°22' W 071°03'0 0.0
2018-Jun-14 12:00N 42°22' W 071°03'1 1.1
2018-Jun-14 11:30N 42°22' W 071°02'1 0.0
2018-Jun-13 21:44N 42°22' W 071°03'1 3.7
2018-Jun-13 21:30N 42°21' W 071°02'1631.5
2018-Jun-13 21:01N 42°15' W 070°42'8 3.8
2018-Jun-13 18:55N 42°11' W 070°34'1331.7
2018-Jun-13 18:30N 42°18' W 070°49'1122.5
2018-Jun-13 18:00N 42°22' W 071°03'0 0.0
2018-Jun-13 17:30N 42°22' W 071°03'0 0.0
2018-Jun-13 17:00N 42°22' W 071°03'2 4.6
2018-Jun-13 16:30N 42°21' W 071°00'22 8.6
2018-Jun-13 13:57N 42°11' W 070°34'1431.7
2018-Jun-13 13:30N 42°18' W 070°50'1020.5
2018-Jun-13 13:00N 42°22' W 071°03'0 0.0
2018-Jun-13 12:30N 42°22' W 071°03'0 0.4
2018-Jun-13 12:01N 42°22' W 071°03'0 0.7
2018-Jun-13 11:31N 42°22' W 071°02'1 1.1
2018-Jun-13 11:01N 42°22' W 071°03'0 0.0
2018-Jun-12 21:44N 42°22' W 071°03'1 5.3
2018-Jun-12 21:30N 42°21' W 071°01'1632.4
2018-Jun-12 21:00N 42°14' W 070°42'6 3.0
2018-Jun-12 18:55N 42°11' W 070°34'1331.6
2018-Jun-12 18:30N 42°18' W 070°49'1121.6
2018-Jun-12 18:00N 42°22' W 071°03'0 0.0
2018-Jun-12 17:30N 42°22' W 071°03'0 0.0
2018-Jun-12 17:00N 42°22' W 071°03'3 5.8
2018-Jun-12 16:30N 42°20' W 070°59'2912.6
2018-Jun-12 14:12N 42°07' W 070°25'630.8
2018-Jun-12 14:00N 42°10' W 070°32'1530.8
2018-Jun-12 13:31N 42°18' W 070°49'1121.2
2018-Jun-12 13:00N 42°22' W 071°03'0 0.0
2018-Jun-12 12:30N 42°22' W 071°03'1 1.1
2018-Jun-12 12:00N 42°22' W 071°02'0 0.0
2018-Jun-12 11:30N 42°22' W 071°02'1 1.1
2018-Jun-12 11:00N 42°22' W 071°03'0 0.0
2018-Jun-11 21:42N 42°22' W 071°03'211.7
2018-Jun-11 21:30N 42°21' W 071°00'1631.8
2018-Jun-11 21:00N 42°14' W 070°40'1631.5
2018-Jun-11 20:30N 42°06' W 070°23'911.3
2018-Jun-11 19:42N 42°03' W 070°11'211.7
2018-Jun-11 19:30N 42°01' W 070°13'1530.7
2018-Jun-11 19:00N 42°10' W 070°31'1530.9
2018-Jun-11 18:31N 42°18' W 070°48'1122.6
2018-Jun-11 18:00N 42°22' W 071°03'0 0.0
2018-Jun-11 17:30N 42°22' W 071°03'0 0.0
2018-Jun-11 17:01N 42°22' W 071°03'1 2.9
2018-Jun-11 16:30N 42°21' W 071°01'1631.0
2018-Jun-11 16:00N 42°15' W 070°42'  

Dump ship's entire track history